Time;durP1;ratioP1;P1;durP2;ratioP2;P2;SDS_P1;SDS_P2;PMS_P1;PMS_P2;Temp;Humidity;BMP_temperature;BMP_pressure;BME280_temperature;BME280_humidity;BME280_pressure;Samples;Min_cycle;Max_cycle;Signal;HPM_P1;HPM_P2
2022/01/10 00:02:04;;;;;;;47.47;25.43;;;;;;;0.21;100.00;97854.66;4948617;28;20054;-58
2022/01/10 00:04:30;;;;;;;44.80;24.07;;;;;;;0.14;100.00;97860.50;4949257;28;20122;-57
2022/01/10 00:06:56;;;;;;;46.83;22.73;;;;;;;0.04;100.00;97867.97;4950313;28;20053;-58
2022/01/10 00:09:21;;;;;;;41.47;22.27;;;;;;;0.06;100.00;97864.63;4950483;28;20031;-57
2022/01/10 00:11:47;;;;;;;44.20;21.97;;;;;;;0.04;100.00;97875.53;4949042;28;20098;-57
2022/01/10 00:14:13;;;;;;;41.57;22.00;;;;;;;0.02;100.00;97882.19;4950626;28;20499;-59
2022/01/10 00:16:39;;;;;;;42.97;21.60;;;;;;;-0.01;100.00;97881.34;4952838;28;20129;-58
2022/01/10 00:19:04;;;;;;;44.97;24.37;;;;;;;-0.03;100.00;97874.59;4949841;28;20428;-58
2022/01/10 00:21:30;;;;;;;39.73;20.67;;;;;;;-0.05;100.00;97869.56;4950142;28;20030;-58
2022/01/10 00:23:55;;;;;;;37.73;20.50;;;;;;;-0.01;100.00;97867.91;4951908;28;20090;-59
2022/01/10 00:26:20;;;;;;;37.83;20.97;;;;;;;0.02;100.00;97869.59;4949106;28;20090;-58
2022/01/10 00:28:46;;;;;;;35.73;19.33;;;;;;;0.02;100.00;97878.00;4947386;28;20097;-59
2022/01/10 00:31:11;;;;;;;39.37;18.80;;;;;;;0.05;100.00;97878.03;4940227;28;20035;-58
2022/01/10 00:33:37;;;;;;;36.23;18.27;;;;;;;0.05;100.00;97874.66;4951490;28;20031;-58
2022/01/10 00:36:03;;;;;;;20.87;11.20;;;;;;;0.43;100.00;97873.34;4931249;28;20023;-59
2022/01/10 00:38:28;;;;;;;6.40;1.73;;;;;;;1.48;100.00;97866.47;4950876;28;20246;-58
2022/01/10 00:40:53;;;;;;;2.03;1.13;;;;;;;2.14;100.00;97884.38;4952302;28;20035;-55
2022/01/10 00:43:30;;;;;;;3.43;1.27;;;;;;;2.51;100.00;97870.09;4951773;28;20352;-57
2022/01/10 00:45:56;;;;;;;4.20;1.97;;;;;;;2.70;100.00;97870.94;4948266;28;20100;-59
2022/01/10 00:48:21;;;;;;;4.43;1.20;;;;;;;2.78;100.00;97876.00;4949178;28;20254;-58
2022/01/10 00:50:47;;;;;;;3.90;1.57;;;;;;;2.73;100.00;97874.31;4950172;28;20035;-56
2022/01/10 00:53:12;;;;;;;2.77;1.50;;;;;;;2.79;100.00;97875.16;4955214;28;20094;-58
2022/01/10 00:55:37;;;;;;;4.27;1.00;;;;;;;2.77;100.00;97882.72;4950330;28;20035;-57
2022/01/10 00:58:03;;;;;;;3.17;1.27;;;;;;;2.78;100.00;97873.47;4951123;28;20045;-59
2022/01/10 01:00:28;;;;;;;4.67;1.40;;;;;;;2.74;100.00;97886.13;4951848;28;20604;-59
2022/01/10 01:02:54;;;;;;;3.57;1.83;;;;;;;2.76;100.00;97892.00;4952504;28;20441;-58
2022/01/10 01:05:22;;;;;;;2.67;1.40;;;;;;;2.71;100.00;97881.06;4953264;28;20105;-58
2022/01/10 01:07:47;;;;;;;1.97;1.40;;;;;;;2.79;100.00;97886.13;4950482;28;20094;-58
2022/01/10 01:13:23;;;;;;;1.60;1.27;;;;;;;2.71;100.00;97886.13;4954404;28;20035;-60
2022/01/10 01:24:17;;;;;;;5.10;1.67;;;;;;;2.71;100.00;97892.88;4889972;29;20040;-59
2022/01/10 01:26:46;;;;;;;3.70;1.53;;;;;;;2.72;100.00;97892.84;4921916;29;20395;-59
2022/01/10 01:29:17;;;;;;;3.80;1.37;;;;;;;2.69;100.00;97905.53;4925366;29;20796;-58
2022/01/10 01:31:43;;;;;;;2.17;1.30;;;;;;;2.65;100.00;97900.44;4908455;29;20050;-58
2022/01/10 01:34:10;;;;;;;5.60;1.40;;;;;;;2.69;100.00;97892.88;4922107;29;20054;-58
2022/01/10 01:36:37;;;;;;;1.83;1.73;;;;;;;2.68;100.00;97908.03;4922609;29;20752;-59
2022/01/10 01:39:05;;;;;;;1.63;1.17;;;;;;;2.72;100.00;97904.66;4924388;29;20057;-58
2022/01/10 01:43:57;;;;;;;1.40;1.30;;;;;;;2.77;100.00;97905.50;4924413;29;20094;-57
2022/01/10 01:46:23;;;;;;;1.57;1.47;;;;;;;2.81;100.00;97909.72;4925420;29;20039;-57
2022/01/10 01:48:50;;;;;;;2.20;1.43;;;;;;;2.78;100.00;97911.44;4925946;29;20043;-54
2022/01/10 01:51:16;;;;;;;3.33;2.07;;;;;;;2.78;100.00;97903.81;4921137;29;20047;-56
2022/01/10 01:53:41;;;;;;;2.57;2.07;;;;;;;2.84;100.00;97911.44;4922836;29;20079;-56
2022/01/10 01:56:10;;;;;;;2.80;1.60;;;;;;;2.83;100.00;97914.81;4925464;29;20825;-56
2022/01/10 01:58:37;;;;;;;3.13;1.27;;;;;;;2.82;100.00;97921.53;4944163;28;20039;-57
2022/01/10 02:01:04;;;;;;;6.63;1.70;;;;;;;2.85;100.00;97919.00;4955227;28;20764;-57
2022/01/10 02:03:33;;;;;;;8.40;2.30;;;;;;;2.78;100.00;97924.94;4954341;28;20035;-56
2022/01/10 02:05:58;;;;;;;4.70;1.80;;;;;;;2.75;100.00;97925.78;4958257;28;20033;-57
2022/01/10 02:08:24;;;;;;;6.77;1.63;;;;;;;2.79;100.00;97920.72;4953684;28;20038;-58
2022/01/10 02:10:49;;;;;;;3.87;2.00;;;;;;;2.75;100.00;97922.41;4950356;28;20066;-56
2022/01/10 02:13:15;;;;;;;4.53;2.27;;;;;;;2.79;100.00;97933.38;4951922;28;20321;-58
2022/01/10 02:15:49;;;;;;;4.20;1.87;;;;;;;2.82;100.00;97929.16;4953505;28;20063;-59
2022/01/10 02:18:16;;;;;;;2.67;2.15;;;;;;;2.79;100.00;97918.19;4955399;28;20042;-58
2022/01/10 02:20:42;;;;;;;2.83;1.93;;;;;;;2.69;100.00;97930.81;4948554;28;20043;-58
2022/01/10 02:23:07;;;;;;;5.23;2.07;;;;;;;2.74;100.00;97936.75;4950913;28;20496;-58
2022/01/10 02:25:33;;;;;;;4.47;1.80;;;;;;;2.64;100.00;97922.38;4952417;28;20386;-59
2022/01/10 02:27:59;;;;;;;4.73;2.40;;;;;;;2.71;100.00;97926.63;4953371;28;20042;-59
2022/01/10 02:30:25;;;;;;;4.00;1.93;;;;;;;2.75;100.00;97925.78;4947689;28;20035;-58
2022/01/10 02:32:51;;;;;;;2.90;1.60;;;;;;;2.65;100.00;97921.53;4952166;28;20230;-57
2022/01/10 02:35:33;;;;;;;6.93;2.50;;;;;;;2.67;100.00;97934.22;4950729;28;20106;-58
2022/01/10 02:37:59;;;;;;;5.83;2.33;;;;;;;2.59;100.00;97926.59;4948737;28;20488;-58
2022/01/10 02:40:27;;;;;;;3.23;2.33;;;;;;;2.58;100.00;97936.72;4950101;28;20027;-57
2022/01/10 02:42:53;;;;;;;3.17;2.07;;;;;;;2.59;100.00;97925.78;4952841;28;20113;-56
2022/01/10 02:45:20;;;;;;;3.43;2.33;;;;;;;2.61;100.00;97939.25;4951515;28;20043;-57
2022/01/10 02:47:48;;;;;;;2.93;1.97;;;;;;;2.65;100.00;97930.81;4952829;28;20462;-58
2022/01/10 02:50:15;;;;;;;4.20;2.33;;;;;;;2.66;100.00;97935.03;4950555;28;20425;-58
2022/01/10 02:52:40;;;;;;;4.13;1.80;;;;;;;2.66;100.00;97933.34;4950486;28;20038;-58
2022/01/10 02:55:08;;;;;;;8.50;1.80;;;;;;;2.61;100.00;97924.91;4953626;28;20041;-58
2022/01/10 02:57:34;;;;;;;3.43;1.97;;;;;;;2.66;100.00;97932.50;4951316;28;20046;-57
2022/01/10 03:00:03;;;;;;;2.53;2.33;;;;;;;2.65;100.00;97925.75;4949082;28;20778;-58
2022/01/10 03:02:32;;;;;;;3.63;2.00;;;;;;;2.69;100.00;97937.56;4951709;28;20101;-58
2022/01/10 03:04:58;;;;;;;5.30;1.93;;;;;;;2.63;100.00;97940.09;4951825;28;20038;-58
2022/01/10 03:07:24;;;;;;;3.23;2.23;;;;;;;2.64;100.00;97945.16;4949765;28;20078;-58
2022/01/10 03:09:53;;;;;;;4.27;2.20;;;;;;;2.69;100.00;97948.53;4949823;28;20073;-59
2022/01/10 03:12:20;;;;;;;2.90;1.83;;;;;;;2.69;100.00;97952.75;4949431;28;20533;-58
2022/01/10 03:14:46;;;;;;;5.53;2.00;;;;;;;2.76;100.00;97962.88;4953071;28;20039;-58
2022/01/10 03:17:12;;;;;;;4.30;2.60;;;;;;;2.83;100.00;97945.19;4950949;28;20070;-58
2022/01/10 03:19:40;;;;;;;5.67;2.13;;;;;;;2.85;100.00;97963.72;4950709;28;20878;-59
2022/01/10 03:22:07;;;;;;;5.33;2.23;;;;;;;2.80;100.00;97952.78;4955128;28;20034;-56
2022/01/10 03:24:32;;;;;;;3.43;1.90;;;;;;;2.72;100.00;97968.78;4956965;28;20027;-58
2022/01/10 03:26:58;;;;;;;3.57;2.00;;;;;;;2.76;100.00;97977.22;4952903;28;20041;-58
2022/01/10 03:29:23;;;;;;;4.90;1.97;;;;;;;2.78;100.00;97978.06;4950680;28;20105;-59
2022/01/10 03:31:49;;;;;;;2.07;1.50;;;;;;;2.81;100.00;97977.22;4951772;28;20118;-57
2022/01/10 03:34:15;;;;;;;5.87;2.50;;;;;;;2.74;100.00;97972.16;4954415;28;20110;-58
2022/01/10 03:36:42;;;;;;;5.60;2.20;;;;;;;2.72;100.00;97978.91;4953278;28;20366;-59
2022/01/10 03:39:09;;;;;;;4.30;2.37;;;;;;;2.72;100.00;97986.50;4954333;28;20084;-58
2022/01/10 03:41:36;;;;;;;2.80;2.30;;;;;;;2.80;100.00;97990.75;4952472;28;20050;-58
2022/01/10 03:44:04;;;;;;;3.23;2.00;;;;;;;2.83;100.00;97991.59;4953203;28;20582;-58
2022/01/10 03:46:32;;;;;;;6.10;2.80;;;;;;;2.81;100.00;97993.25;4950711;28;20047;-59
2022/01/10 03:48:58;;;;;;;5.43;2.40;;;;;;;2.75;100.00;97994.09;4950216;28;20980;-58
2022/01/10 03:51:23;;;;;;;4.90;2.43;;;;;;;2.71;100.00;98000.00;4952838;28;20115;-58
2022/01/10 03:53:49;;;;;;;4.10;2.30;;;;;;;2.64;100.00;98005.03;4953265;28;20043;-58
2022/01/10 03:56:14;;;;;;;4.60;3.00;;;;;;;2.56;100.00;97999.97;4952111;28;20031;-56
2022/01/10 03:58:40;;;;;;;3.93;2.47;;;;;;;2.57;100.00;98005.88;4952376;28;20030;-55
2022/01/10 04:01:08;;;;;;;4.83;2.47;;;;;;;2.51;100.00;98011.75;4954259;28;20044;-58
2022/01/10 04:03:34;;;;;;;4.17;3.40;;;;;;;2.52;100.00;98018.50;4953182;28;20110;-56
2022/01/10 04:05:59;;;;;;;5.17;2.90;;;;;;;2.49;100.00;98018.50;4952153;28;20118;-59
2022/01/10 04:08:25;;;;;;;5.37;3.20;;;;;;;2.45;100.00;98021.88;4952562;28;20043;-58
2022/01/10 04:10:52;;;;;;;2.43;2.23;;;;;;;2.42;100.00;98028.59;4952225;28;20030;-58
2022/01/10 04:13:18;;;;;;;4.40;2.77;;;;;;;2.38;100.00;98022.66;4952655;28;20039;-55
2022/01/10 04:15:45;;;;;;;5.83;2.47;;;;;;;2.38;100.00;98025.19;4950635;28;20510;-58
2022/01/10 04:18:10;;;;;;;5.43;3.50;;;;;;;2.41;100.00;98035.34;4952794;28;20046;-56
2022/01/10 04:20:36;;;;;;;4.20;3.27;;;;;;;2.41;100.00;98031.97;4953760;28;20031;-59
2022/01/10 04:23:02;;;;;;;7.80;3.57;;;;;;;2.41;100.00;98035.34;4950997;28;20445;-59
2022/01/10 04:25:27;;;;;;;6.33;3.23;;;;;;;2.38;100.00;98047.13;4950291;28;20099;-60
2022/01/10 04:27:53;;;;;;;6.17;3.23;;;;;;;2.38;100.00;98042.91;4953134;28;20043;-59
2022/01/10 04:30:18;;;;;;;5.87;4.00;;;;;;;2.35;100.00;98044.56;4954636;28;20054;-59
2022/01/10 04:32:44;;;;;;;8.93;3.67;;;;;;;2.35;100.00;98050.47;4951359;28;20041;-56
2022/01/10 04:35:10;;;;;;;5.37;3.40;;;;;;;2.39;100.00;98052.19;4950992;28;20058;-59
2022/01/10 04:37:36;;;;;;;4.97;3.07;;;;;;;2.33;100.00;98054.72;4952515;28;20058;-59
2022/01/10 04:40:03;;;;;;;5.93;3.23;;;;;;;2.37;100.00;98047.97;4955971;28;20675;-59
2022/01/10 04:42:28;;;;;;;5.17;3.67;;;;;;;2.34;100.00;98056.38;4952481;28;20042;-59
2022/01/10 04:44:53;;;;;;;5.37;3.87;;;;;;;2.28;100.00;98054.69;4949768;28;20030;-59
2022/01/10 04:47:19;;;;;;;10.97;3.93;;;;;;;2.26;100.00;98069.00;4951683;28;20394;-59
2022/01/10 04:50:30;;;;;;;6.37;2.97;;;;;;;2.22;100.00;98079.94;4955489;28;20034;-57
2022/01/10 04:52:31;;;;;;;8.70;4.23;;;;;;;2.19;100.00;98069.81;4951449;28;20738;-58
2022/01/10 04:54:57;;;;;;;5.47;3.70;;;;;;;2.16;100.00;98069.81;4952753;28;20126;-59
2022/01/10 04:57:23;;;;;;;4.73;3.40;;;;;;;2.14;100.00;98073.16;4952415;28;20359;-58
2022/01/10 04:59:48;;;;;;;7.27;3.80;;;;;;;2.12;100.00;98075.66;4951439;28;20109;-58
2022/01/10 05:02:14;;;;;;;6.33;3.60;;;;;;;2.18;100.00;98090.88;4953198;28;20190;-57
2022/01/10 05:04:40;;;;;;;5.63;3.60;;;;;;;2.16;100.00;98089.19;4954928;28;20656;-57
2022/01/10 05:07:06;;;;;;;5.87;3.43;;;;;;;2.10;100.00;98100.09;4947670;28;20046;-58
2022/01/10 05:09:31;;;;;;;6.13;3.60;;;;;;;2.11;100.00;98111.06;4957359;28;20023;-56
2022/01/10 05:11:58;;;;;;;10.33;5.30;;;;;;;1.99;100.00;98111.84;4954650;28;20032;-58
2022/01/10 05:14:23;;;;;;;8.93;4.10;;;;;;;1.99;100.00;98111.84;4956674;28;20109;-58
2022/01/10 05:16:49;;;;;;;5.20;4.50;;;;;;;1.87;100.00;98119.31;4954972;28;20121;-58
2022/01/10 05:19:14;;;;;;;9.57;5.20;;;;;;;1.86;100.00;98119.31;4954620;28;20023;-58
2022/01/10 05:21:40;;;;;;;10.87;6.40;;;;;;;1.80;100.00;98128.53;4952668;28;20027;-57
2022/01/10 05:24:07;;;;;;;12.37;6.70;;;;;;;1.75;100.00;98130.19;4953533;28;20114;-59
2022/01/10 05:26:34;;;;;;;9.67;6.00;;;;;;;1.78;100.00;98132.72;4955440;28;20663;-58
2022/01/10 05:29:01;;;;;;;16.30;5.80;;;;;;;1.74;100.00;98138.59;4954060;28;20102;-58
2022/01/10 05:31:28;;;;;;;13.57;5.53;;;;;;;1.81;100.00;98147.09;4952074;28;20465;-57
2022/01/10 05:33:54;;;;;;;12.37;5.53;;;;;;;1.80;100.00;98146.22;4955356;28;20034;-56
2022/01/10 05:36:19;;;;;;;14.77;7.00;;;;;;;1.80;100.00;98153.81;4954536;28;20038;-58
2022/01/10 05:38:45;;;;;;;10.63;5.33;;;;;;;1.81;100.00;98150.47;4935097;28;20023;-59
2022/01/10 05:41:12;;;;;;;13.57;5.87;;;;;;;1.81;100.00;98149.63;4951416;28;20892;-57
2022/01/10 05:43:38;;;;;;;11.87;4.60;;;;;;;1.81;100.00;98153.00;4957253;28;20378;-59
2022/01/10 05:46:07;;;;;;;14.27;5.30;;;;;;;1.76;100.00;98152.09;4955963;28;20502;-59
2022/01/10 05:48:34;;;;;;;9.90;4.80;;;;;;;1.69;100.00;98152.91;4951937;28;20062;-58
2022/01/10 05:50:59;;;;;;;6.47;4.77;;;;;;;1.77;100.00;98156.31;4951544;28;20098;-57
2022/01/10 05:53:25;;;;;;;11.30;4.63;;;;;;;1.75;100.00;98159.66;4955516;28;20043;-58
2022/01/10 05:55:51;;;;;;;11.70;5.33;;;;;;;1.71;100.00;98158.78;4954235;28;20625;-59
2022/01/10 05:58:16;;;;;;;6.03;4.90;;;;;;;1.76;100.00;98158.81;4953950;28;20118;-60
2022/01/10 06:00:42;;;;;;;10.87;4.90;;;;;;;1.73;100.00;98157.13;4951827;28;20069;-57
2022/01/10 06:03:08;;;;;;;5.47;4.53;;;;;;;1.72;100.00;98162.16;4954574;28;20500;-60
2022/01/10 06:05:34;;;;;;;9.37;4.70;;;;;;;1.65;100.00;98161.28;4953558;28;20038;-63
2022/01/10 06:08:01;;;;;;;11.60;4.73;;;;;;;1.52;100.00;98156.97;4951344;28;20027;-60
2022/01/10 06:10:26;;;;;;;8.37;5.13;;;;;;;1.50;100.00;98143.44;4950802;28;20126;-59
2022/01/10 06:12:53;;;;;;;9.07;5.70;;;;;;;1.60;100.00;98154.50;4954298;28;20062;-59
2022/01/10 06:15:19;;;;;;;14.37;5.93;;;;;;;1.59;100.00;98157.84;4953688;28;20598;-62
2022/01/10 06:17:45;;;;;;;7.07;5.20;;;;;;;1.54;100.00;98162.84;4954110;28;20390;-62
2022/01/10 06:20:10;;;;;;;7.57;5.03;;;;;;;1.51;100.00;98159.47;4951908;28;20030;-62
2022/01/10 06:22:36;;;;;;;10.00;5.53;;;;;;;1.55;100.00;98168.75;4955656;28;20426;-62
2022/01/10 06:25:03;;;;;;;11.07;4.60;;;;;;;1.57;100.00;98178.03;4953418;28;20062;-63
2022/01/10 06:27:29;;;;;;;11.70;5.07;;;;;;;1.63;100.00;98180.63;4952448;28;20039;-62
2022/01/10 06:29:54;;;;;;;9.57;5.40;;;;;;;1.65;100.00;98184.03;4951327;28;20366;-62
2022/01/10 06:32:20;;;;;;;7.93;4.93;;;;;;;1.71;100.00;98183.19;4952928;28;20023;-62
2022/01/10 06:34:45;;;;;;;10.20;5.07;;;;;;;1.70;100.00;98181.50;4951443;28;20300;-61
2022/01/10 06:37:11;;;;;;;14.90;5.60;;;;;;;1.70;100.00;98192.47;4952109;28;20038;-62
2022/01/10 06:39:36;;;;;;;8.10;4.40;;;;;;;1.67;100.00;98187.38;4951029;28;20506;-62
2022/01/10 06:42:02;;;;;;;8.07;5.40;;;;;;;1.82;100.00;98192.56;4951503;28;20506;-62
2022/01/10 06:44:28;;;;;;;9.33;5.20;;;;;;;1.80;100.00;98194.25;4950528;28;20128;-62
2022/01/10 06:46:53;;;;;;;7.40;5.53;;;;;;;1.72;100.00;98203.44;4949435;28;20361;-62
2022/01/10 06:49:21;;;;;;;13.17;6.43;;;;;;;1.74;100.00;98211.06;4953377;28;20038;-62
2022/01/10 06:51:46;;;;;;;9.63;5.87;;;;;;;1.72;100.00;98205.97;4954121;28;20039;-62
2022/01/10 06:54:12;;;;;;;11.87;5.37;;;;;;;1.79;100.00;98219.50;4951768;28;20026;-63
2022/01/10 06:56:37;;;;;;;10.27;5.57;;;;;;;1.78;100.00;98227.94;4952456;28;20023;-62
2022/01/10 06:59:02;;;;;;;8.27;5.27;;;;;;;1.76;100.00;98219.47;4955574;28;20433;-62
2022/01/10 07:01:28;;;;;;;8.73;5.40;;;;;;;1.79;100.00;98227.06;4950565;28;20306;-60
2022/01/10 07:03:57;;;;;;;7.67;5.17;;;;;;;1.86;100.00;98238.09;4955198;28;20283;-60
2022/01/10 07:06:23;;;;;;;12.13;6.20;;;;;;;1.88;100.00;98234.75;4952035;28;20111;-60
2022/01/10 07:08:48;;;;;;;7.47;5.40;;;;;;;1.90;100.00;98240.66;4956279;28;20023;-60
2022/01/10 07:11:14;;;;;;;11.73;5.70;;;;;;;1.86;100.00;98243.16;4953265;28;20034;-63
2022/01/10 07:13:40;;;;;;;12.07;5.43;;;;;;;1.81;100.00;98246.50;4952745;28;20042;-62
2022/01/10 07:16:05;;;;;;;11.70;6.27;;;;;;;1.88;100.00;98256.63;4951416;28;20555;-62
2022/01/10 07:18:31;;;;;;;12.90;6.40;;;;;;;1.93;100.00;98263.44;4954557;28;20027;-62
2022/01/10 07:20:57;;;;;;;8.97;6.43;;;;;;;1.92;100.00;98260.88;4950347;28;20034;-61
2022/01/10 07:23:23;;;;;;;12.27;6.10;;;;;;;1.95;100.00;98266.00;4950617;28;20067;-62
2022/01/10 07:25:49;;;;;;;9.27;6.77;;;;;;;1.94;100.00;98276.91;4950128;28;20587;-62
2022/01/10 07:28:15;;;;;;;14.13;6.17;;;;;;;1.94;100.00;98272.72;4953297;28;20037;-59
2022/01/10 07:30:41;;;;;;;9.77;6.27;;;;;;;1.99;100.00;98283.72;4950595;28;20039;-60
2022/01/10 07:33:07;;;;;;;12.10;6.20;;;;;;;2.05;100.00;98295.56;4948751;28;20039;-61
2022/01/10 07:35:33;;;;;;;8.90;6.20;;;;;;;2.04;100.00;98299.75;4951386;28;20023;-62
2022/01/10 07:37:58;;;;;;;8.57;6.23;;;;;;;1.98;100.00;98303.91;4953408;28;20039;-60
2022/01/10 07:40:24;;;;;;;13.47;7.30;;;;;;;2.00;100.00;98302.25;4953079;28;20037;-61
2022/01/10 07:42:50;;;;;;;9.93;5.63;;;;;;;1.95;100.00;98309.81;4948402;28;20027;-59
2022/01/10 07:45:16;;;;;;;19.97;6.23;;;;;;;2.12;100.00;98312.50;4952588;28;20067;-62
2022/01/10 07:47:41;;;;;;;10.13;5.67;;;;;;;2.03;100.00;98307.34;4951701;28;20046;-58
2022/01/10 07:50:08;;;;;;;7.77;4.93;;;;;;;2.05;100.00;98311.56;4937045;28;20054;-58
2022/01/10 07:52:33;;;;;;;7.53;5.07;;;;;;;2.16;100.00;98319.28;4945944;28;20516;-59
2022/01/10 07:54:59;;;;;;;8.77;5.50;;;;;;;2.04;100.00;98324.19;4953060;28;20039;-59
2022/01/10 07:57:25;;;;;;;8.60;5.03;;;;;;;2.09;100.00;98328.47;4950417;28;20078;-60
2022/01/10 07:59:50;;;;;;;9.43;5.60;;;;;;;2.13;100.00;98334.38;4949496;28;20505;-58
2022/01/10 08:02:16;;;;;;;9.63;5.00;;;;;;;2.19;100.00;98329.41;4949845;28;20432;-60
2022/01/10 08:04:42;;;;;;;8.37;5.10;;;;;;;2.18;100.00;98345.41;4950945;28;20333;-59
2022/01/10 08:07:08;;;;;;;6.57;4.37;;;;;;;2.20;100.00;98336.16;4951927;28;20031;-59
2022/01/10 08:09:33;;;;;;;7.67;5.33;;;;;;;2.16;100.00;98347.09;4950549;28;20050;-59
2022/01/10 08:12:03;;;;;;;7.23;5.23;;;;;;;2.17;100.00;98352.13;4946876;28;20035;-59
2022/01/10 08:14:29;;;;;;;8.13;5.70;;;;;;;2.18;100.00;98355.50;4951168;28;20794;-60
2022/01/10 08:16:56;;;;;;;9.17;4.77;;;;;;;2.23;100.00;98354.72;4952087;28;20177;-60
2022/01/10 08:19:21;;;;;;;8.20;4.93;;;;;;;2.15;100.00;98360.56;4949677;28;20401;-58
2022/01/10 08:21:48;;;;;;;7.10;4.80;;;;;;;2.23;100.00;98361.47;4947769;28;20027;-60
2022/01/10 08:24:14;;;;;;;8.23;5.47;;;;;;;2.23;100.00;98374.13;4951175;28;20067;-57
2022/01/10 08:26:40;;;;;;;9.93;6.43;;;;;;;2.19;100.00;98363.13;4953619;28;20515;-58
2022/01/10 08:29:06;;;;;;;12.13;6.40;;;;;;;2.15;100.00;98369.00;4948724;28;20059;-60
2022/01/10 08:31:33;;;;;;;14.63;7.30;;;;;;;2.19;100.00;98372.38;4947746;28;20252;-60
2022/01/10 08:34:00;;;;;;;10.00;5.63;;;;;;;2.17;100.00;98379.09;4953566;28;20039;-61
2022/01/10 08:36:28;;;;;;;10.80;5.37;;;;;;;2.14;100.00;98379.06;4951260;28;20038;-60
2022/01/10 08:38:54;;;;;;;8.77;5.83;;;;;;;2.26;100.00;98384.25;4949753;28;20463;-61
2022/01/10 08:41:19;;;;;;;11.03;5.43;;;;;;;2.28;100.00;98377.53;4949435;28;20039;-60
2022/01/10 08:43:45;;;;;;;9.47;6.07;;;;;;;2.21;100.00;98383.34;4954859;28;20567;-60
2022/01/10 08:46:10;;;;;;;9.77;4.80;;;;;;;2.29;100.00;98386.84;4952712;28;20058;-60
2022/01/10 08:48:36;;;;;;;11.10;6.50;;;;;;;2.32;100.00;98394.44;4949159;28;20030;-60
2022/01/10 08:51:01;;;;;;;6.70;4.37;;;;;;;2.32;100.00;98399.50;4949066;28;20097;-60
2022/01/10 08:53:26;;;;;;;5.37;4.13;;;;;;;2.25;100.00;98397.72;4952184;28;20428;-58
2022/01/10 08:55:52;;;;;;;8.90;5.33;;;;;;;2.26;100.00;98400.28;4951775;28;20074;-58
2022/01/10 08:58:18;;;;;;;7.93;4.60;;;;;;;2.38;100.00;98406.31;4947909;28;20197;-59
2022/01/10 09:00:44;;;;;;;9.00;5.93;;;;;;;2.31;100.00;98410.44;4952183;28;20371;-59
2022/01/10 09:03:09;;;;;;;7.23;3.97;;;;;;;2.30;100.00;98417.19;4950964;28;20301;-61
2022/01/10 09:05:35;;;;;;;7.00;4.63;;;;;;;2.30;100.00;98417.19;4950674;28;20029;-59
2022/01/10 09:08:02;;;;;;;10.73;6.43;;;;;;;2.45;100.00;98411.44;4951496;28;20039;-59
2022/01/10 09:10:28;;;;;;;4.90;3.97;;;;;;;2.54;100.00;98415.72;4950636;28;20181;-57
2022/01/10 09:12:54;;;;;;;6.00;3.60;;;;;;;2.64;100.00;98408.22;4955181;28;20312;-58
2022/01/10 09:15:20;;;;;;;3.33;3.00;;;;;;;2.72;100.00;98416.72;4951102;28;20177;-60
2022/01/10 09:17:45;;;;;;;5.40;4.20;;;;;;;2.80;100.00;98404.13;4952395;28;20545;-59
2022/01/10 09:20:11;;;;;;;3.63;2.47;;;;;;;2.86;100.00;98423.59;4950572;28;20023;-60
2022/01/10 09:22:37;;;;;;;3.13;2.57;;;;;;;3.01;100.00;98421.19;4951619;28;20054;-59
2022/01/10 09:25:05;;;;;;;3.93;2.40;;;;;;;3.00;100.00;98425.41;4951266;28;20256;-58
2022/01/10 09:27:31;;;;;;;5.00;2.93;;;;;;;2.92;100.00;98428.72;4949576;28;20118;-59
2022/01/10 09:29:56;;;;;;;4.30;2.97;;;;;;;2.84;100.00;98426.13;4946840;28;20085;-60
2022/01/10 09:32:22;;;;;;;2.77;2.50;;;;;;;2.84;100.00;98426.13;4951239;28;20050;-60
2022/01/10 09:34:47;;;;;;;2.50;2.30;;;;;;;2.85;100.00;98429.47;4949041;28;20110;-60
2022/01/10 09:37:13;;;;;;;3.27;2.60;;;;;;;2.94;100.00;98442.22;4947002;28;20058;-59
2022/01/10 09:39:38;;;;;;;3.77;2.00;;;;;;;2.93;100.00;98448.13;4951199;28;20026;-58
2022/01/10 09:42:04;;;;;;;3.40;2.23;;;;;;;3.08;100.00;98453.31;4951877;28;20114;-58
2022/01/10 09:44:30;;;;;;;2.73;2.20;;;;;;;2.99;100.00;98446.47;4949732;28;20121;-59
2022/01/10 09:46:55;;;;;;;2.93;2.37;;;;;;;3.05;100.00;98448.22;4948334;28;20047;-60
2022/01/10 09:49:21;;;;;;;3.37;2.50;;;;;;;3.03;100.00;98444.81;4956479;28;20030;-59
2022/01/10 09:51:47;;;;;;;2.30;2.10;;;;;;;3.08;100.00;98455.84;4954065;28;20113;-59
2022/01/10 09:54:13;;;;;;;2.30;2.10;;;;;;;3.14;100.00;98453.38;4954645;28;20444;-57
2022/01/10 09:56:41;;;;;;;2.40;2.20;;;;;;;3.03;100.00;98460.00;4953552;28;20031;-58
2022/01/10 09:59:07;;;;;;;2.30;1.73;;;;;;;3.00;100.00;98458.31;4954459;28;20034;-59
2022/01/10 10:01:34;;;;;;;2.63;2.27;;;;;;;2.96;100.00;98464.19;4955908;28;20172;-57
2022/01/10 10:04:00;;;;;;;2.73;2.43;;;;;;;3.07;100.00;98464.25;4951708;28;20058;-59
2022/01/10 10:06:28;;;;;;;3.50;2.30;;;;;;;3.06;100.00;98463.41;4951797;28;20031;-56
2022/01/10 10:09:04;;;;;;;3.13;1.90;;;;;;;3.11;100.00;98468.50;4952957;28;20035;-59
2022/01/10 10:11:47;;;;;;;1.50;1.40;;;;;;;3.01;100.00;98461.69;4954350;28;20045;-58
2022/01/10 10:14:17;;;;;;;2.97;2.03;;;;;;;2.96;100.00;98468.41;4956145;28;20038;-58
2022/01/10 10:16:49;;;;;;;5.10;2.57;;;;;;;3.06;100.00;98473.53;4954498;28;20059;-58
2022/01/10 10:19:21;;;;;;;3.53;3.23;;;;;;;2.97;100.00;98475.16;4957427;28;20039;-57
2022/01/10 10:21:48;;;;;;;4.27;2.90;;;;;;;3.03;100.00;98473.53;4938151;28;20545;-58
2022/01/10 10:24:14;;;;;;;3.37;2.60;;;;;;;3.12;100.00;98481.19;4953142;28;20059;-64
2022/01/10 10:26:41;;;;;;;4.33;2.80;;;;;;;3.08;100.00;98476.94;4954446;28;20038;-62
2022/01/10 10:29:09;;;;;;;4.73;3.20;;;;;;;3.14;100.00;98481.22;4954944;28;20051;-62
2022/01/10 10:31:41;;;;;;;4.53;3.07;;;;;;;3.27;100.00;98482.16;4953235;28;20027;-61
2022/01/10 10:34:07;;;;;;;2.73;2.50;;;;;;;3.31;100.00;98494.00;4951640;28;20528;-61
2022/01/10 10:36:35;;;;;;;3.00;2.47;;;;;;;3.13;100.00;98487.97;4950527;28;20440;-61
2022/01/10 10:39:07;;;;;;;3.30;2.93;;;;;;;3.16;100.00;98494.72;4953269;28;20047;-61
2022/01/10 10:41:37;;;;;;;3.37;2.20;;;;;;;3.23;100.00;98504.06;4955236;28;20444;-60
2022/01/10 10:44:04;;;;;;;3.30;2.80;;;;;;;3.18;100.00;98505.75;4955232;28;20051;-61
2022/01/10 10:46:31;;;;;;;3.20;2.90;;;;;;;3.20;100.00;98504.91;4954564;28;20630;-61
2022/01/10 10:49:03;;;;;;;3.23;2.93;;;;;;;3.19;100.00;98502.34;4955164;28;20153;-60
2022/01/10 10:51:33;;;;;;;3.80;2.50;;;;;;;3.14;100.00;98504.03;4953317;28;20025;-59
2022/01/10 10:54:07;;;;;;;3.47;2.83;;;;;;;3.11;100.00;98509.03;4952911;28;20081;-60
2022/01/10 10:56:35;;;;;;;4.80;3.63;;;;;;;3.08;100.00;98509.88;4950567;28;20023;-61
2022/01/10 10:59:01;;;;;;;5.07;3.87;;;;;;;3.19;100.00;98518.41;4949615;28;20028;-61
2022/01/10 11:01:27;;;;;;;6.13;3.47;;;;;;;3.11;100.00;98509.88;4950160;28;20066;-61
2022/01/10 11:03:53;;;;;;;5.40;3.70;;;;;;;3.21;100.00;98521.81;4952762;28;20110;-56
2022/01/10 11:06:20;;;;;;;4.27;2.97;;;;;;;3.41;100.00;98523.63;4956411;28;20541;-57
2022/01/10 11:08:46;;;;;;;4.23;3.37;;;;;;;3.44;100.00;98524.50;4952506;28;20027;-59
2022/01/10 11:11:23;;;;;;;4.83;2.80;;;;;;;3.44;100.00;98519.44;4950009;28;20035;-58
2022/01/10 11:13:51;;;;;;;4.70;2.70;;;;;;;3.47;100.00;98527.06;4952147;28;20034;-60
2022/01/10 11:16:17;;;;;;;3.97;3.07;;;;;;;3.36;100.00;98527.81;4951324;28;20051;-59
2022/01/10 11:18:43;;;;;;;6.23;4.10;;;;;;;3.39;100.00;98525.31;4951209;28;20504;-60
2022/01/10 11:21:10;;;;;;;6.17;3.80;;;;;;;3.46;100.00;98527.06;4950006;28;20039;-60
2022/01/10 11:23:43;;;;;;;4.67;3.60;;;;;;;3.50;100.00;98529.63;4955675;28;20023;-60
2022/01/10 11:26:08;;;;;;;3.07;2.50;;;;;;;3.36;100.00;98531.19;4954190;28;20062;-59
2022/01/10 11:28:34;;;;;;;4.03;2.73;;;;;;;3.44;100.00;98528.72;4951298;28;20155;-59
2022/01/10 11:31:05;;;;;;;4.20;3.00;;;;;;;3.36;100.00;98541.31;4949077;28;20026;-59
2022/01/10 11:33:36;;;;;;;9.77;4.50;;;;;;;3.33;100.00;98530.31;4954573;28;20037;-60
2022/01/10 11:36:05;;;;;;;2.53;2.33;;;;;;;3.18;100.00;98526.00;4953749;28;20039;-58
2022/01/10 11:38:35;;;;;;;2.30;2.10;;;;;;;3.08;100.00;98542.78;4954728;28;20121;-57
2022/01/10 11:41:32;;;;;;;1.60;1.50;;;;;;;2.99;100.00;98539.31;4949678;28;20124;-59
2022/01/10 11:44:13;;;;;;;3.30;2.60;;;;;;;3.05;100.00;98534.31;4952348;28;20395;-58